Meath Environmental Platform

Observations for Trim Market St

Time AQI Temp °C Hum % Pres Pa CO μg/m³ H₂S μg/m³ NO μg/m³ NO₂ μg/m³ O₃ μg/m³ SO₂ μg/m³ PM1 μg/m³ PM2.5 μg/m³ PM10 μg/m³
Sunday 12 July 2026
11:43 1 33.6 36 66,115 0 0 0 0 33.44 0 1.43 4.68 5.03
11:42 1 33.6 36 66,106 0 0 0 0 45.28 0 1.43 4.67 5.13
11:41 1 33.5 36 66,090 0 0 0 0 34.79 0 1.43 4.13 4.54
11:40 1 33.5 36 66,068 0 0 0 0 38.67 0 0.71 4.66 5.87
11:39 1 33.4 36 66,066 0 0 0 0 44.72 0 1.43 4.13 5.04
11:38 1 33.4 36 66,066 0 0 0 0 39.36 0 2.14 4.68 5.14
11:36 1 33.4 36 66,066 0 0 0 0 35.13 0 0.71 4.14 4.2
11:35 1 33.4 36 66,037 0 0 0 0 38.46 0 1.43 4.67 5.14
11:34 1 33.4 36 66,029 0 0 0 0 28.19 0 0 3.59 3.95
11:30 1 33.2 36 66,041 0 0 0 0 40.31 0 2.14 5.19 5.87
11:29 1 33.1 36 66,035 0 0 0 0 35.8 0 1.43 4.12 4.53
11:26 1 32.9 36 65,975 0 0 0 0 35.92 0 0.71 4.1 5.05
11:25 1 32.9 36 65,949 0 0 0 0.95 52.87 0 0.71 4.1 4.51
11:15 1 32.8 36 65,904 0 0 0 0 36.86 0 2.14 5.72 5.87
11:14 1 32.9 36 65,894 0 0 0 0 35.16 0 0.71 4.64 5.1
11:13 1 32.9 36 65,912 0 0 0 0 38.23 0 2.14 4.64 5.87
11:12 1 33 36 65,902 0 0 0 0 26.32 0 1.43 4.63 5.1
11:11 1 33 36 65,890 0 0 0 0 45.09 0 1.43 4.63 5.1
11:10 1 33 36 65,876 0 0 0 0 45.38 0 0.71 4.11 4.52
11:09 1 33 36 65,886 0 0 0 0 38.86 0 1.43 5.18 5.7